Triumph — WDC9555 — position and weather

sailwx.info

Track history (hours):
 
Tides and Currents Weather Stations Pressure Air Temp Water Temp Dewpoint Dewpoint Depression Visibility Wind Speed Wind Dir Waves Ship Positions

Triumph

Owner: WESTERN TOWBOAT CO, SEATTLE, WA. More information available from US FCC via Universal Licensing System and Coast Guard Vessel Documentation Center.

Last reported at 2017-Feb-21 01:29 UTC. Time now 2017-Feb-21 21:32 UTC.
Position N 47°34' W 122°21'.

Length 24 m; draft 3 m.

Type: Tow > 200 m length. MMSI: 367103880.

Date/timePositionNaut miles runAvg speedWind from/ knotsBaromVisibWave heightAir tempDewpointWater temp
2017-Feb-21 01:29N 47°34' W 122°21'0 0.5
2017-Feb-21 00:33N 47°34' W 122°21'4 4.3
2017-Feb-20 23:33N 47°37' W 122°25'5 5.5
2017-Feb-20 22:33N 47°42' W 122°28'5 5.1
2017-Feb-20 21:33N 47°47' W 122°27'4 4.5
2017-Feb-20 20:33N 47°52' W 122°29'6 5.2
2017-Feb-20 19:27N 47°57' W 122°33'12 6.3
2017-Feb-20 17:33N 48°07' W 122°42'7 7.3
2017-Feb-20 16:33N 48°13' W 122°48'7 6.7
2017-Feb-20 15:31N 48°20' W 122°47'7 6.8
2017-Feb-20 14:33N 48°26' W 122°45'7 7.1
2017-Feb-20 13:33N 48°33' W 122°45'7 7.1
2017-Feb-20 12:33N 48°40' W 122°44'7 6.6
2017-Feb-20 11:32N 48°46' W 122°50'7 7.0
2017-Feb-20 10:31N 48°50' W 122°58'7 6.9
2017-Feb-20 09:32N 48°54' W 123°07'7 7.1
2017-Feb-20 08:32N 48°59' W 123°15'6 6.0
2017-Feb-20 07:33N 49°04' W 123°19'5 5.1
2017-Feb-20 06:33N 49°08' W 123°14'6 6.1
2017-Feb-20 05:33N 49°07' W 123°05'3 2.7
2017-Feb-20 04:33N 49°09' W 123°02'0 0.0
2017-Feb-20 03:33N 49°09' W 123°02'0 0.0
2017-Feb-20 02:33N 49°09' W 123°02'0 0.0
2017-Feb-20 01:33N 49°09' W 123°02'0 0.0
2017-Feb-20 00:33N 49°09' W 123°02'0 0.0
2017-Feb-19 23:33N 49°09' W 123°02'0 0.0
2017-Feb-19 22:33N 49°09' W 123°02'0 0.0
2017-Feb-19 21:33N 49°09' W 123°02'0 0.0
2017-Feb-19 20:33N 49°09' W 123°02'0 0.0
2017-Feb-19 19:33N 49°09' W 123°02'0 0.0
2017-Feb-19 18:33N 49°09' W 123°02'0 0.0
2017-Feb-19 17:33N 49°09' W 123°02'0 0.0
2017-Feb-19 16:33N 49°09' W 123°02'0 0.0
2017-Feb-19 15:33N 49°09' W 123°02'0 0.0
2017-Feb-19 14:33N 49°09' W 123°02'4 3.9
2017-Feb-19 13:33N 49°07' W 123°07'6 6.2
2017-Feb-19 12:33N 49°07' W 123°16'6 5.6
2017-Feb-19 11:33N 49°01' W 123°15'9 9.2
2017-Feb-19 10:32N 48°55' W 123°05'19 9.4
2017-Feb-19 08:33N 48°43' W 122°44'1010.2
2017-Feb-19 07:33N 48°33' W 122°45'1110.7
2017-Feb-19 06:31N 48°22' W 122°45'9 9.4
2017-Feb-19 05:33N 48°13' W 122°48'8 7.8
2017-Feb-19 04:31N 48°07' W 122°39'10 8.8
2017-Feb-19 03:24N 47°58' W 122°34'8 9.0
2017-Feb-19 02:32N 47°53' W 122°24'2 0.8
2017-Feb-19 00:23N 47°53' W 122°22'910.2
2017-Feb-18 23:33N 47°45' W 122°25'5 5.0
2017-Feb-18 22:33N 47°40' W 122°24'1 0.1
2017-Feb-18 00:12N 47°39' W 122°22'2 2.4
2017-Feb-17 23:33N 47°40' W 122°24'1010.2
2017-Feb-17 22:33N 47°50' W 122°23'1110.7
2017-Feb-17 21:33N 47°59' W 122°13'9 4.5
2017-Feb-17 19:33N 47°53' W 122°24'6 5.6
2017-Feb-17 18:33N 47°55' W 122°31'14 6.6
2017-Feb-17 16:24N 48°08' W 122°42'7 8.0
2017-Feb-17 15:32N 48°13' W 122°48'7 7.4
2017-Feb-17 14:32N 48°20' W 122°46'7 6.7
2017-Feb-17 13:33N 48°27' W 122°45'7 6.8
2017-Feb-17 12:33N 48°34' W 122°45'7 7.2
2017-Feb-17 11:33N 48°41' W 122°44'10 7.2
2017-Feb-17 10:09N 48°48' W 122°55'6 7.8
2017-Feb-17 09:23N 48°52' W 123°02'8 8.5
2017-Feb-17 08:28N 48°56' W 123°11'7 7.7
2017-Feb-17 07:32N 49°02' W 123°19'6 6.0
2017-Feb-17 06:33N 49°07' W 123°15'7 6.7
2017-Feb-17 05:33N 49°07' W 123°05'3 2.8
2017-Feb-17 04:33N 49°09' W 123°02'0 0.0
2017-Feb-17 03:33N 49°09' W 123°02'0 0.0
2017-Feb-17 02:33N 49°09' W 123°02'0 0.0
2017-Feb-17 01:33N 49°09' W 123°02'0 0.0
2017-Feb-17 00:33N 49°09' W 123°02'0 0.0
2017-Feb-16 23:33N 49°09' W 123°02'0 0.0
2017-Feb-16 22:33N 49°09' W 123°02'0 0.0
2017-Feb-16 21:33N 49°09' W 123°02'0 0.0
2017-Feb-16 20:33N 49°09' W 123°02'0 0.0
2017-Feb-16 19:33N 49°09' W 123°02'0 0.0
2017-Feb-16 18:33N 49°09' W 123°02'0 0.0
2017-Feb-16 17:33N 49°09' W 123°02'0 0.0
2017-Feb-16 16:33N 49°09' W 123°02'0 0.0
2017-Feb-16 15:33N 49°09' W 123°02'0 0.0
2017-Feb-16 14:33N 49°09' W 123°02'0 0.0
2017-Feb-16 13:33N 49°09' W 123°02'0 0.0
2017-Feb-16 12:33N 49°09' W 123°02'0 0.0
2017-Feb-16 11:33N 49°09' W 123°02'0 0.0
2017-Feb-16 10:33N 49°09' W 123°02'4 4.1
2017-Feb-16 09:33N 49°07' W 123°07'6 5.6
2017-Feb-16 08:33N 49°07' W 123°16'6 5.6
2017-Feb-16 07:33N 49°02' W 123°16'8 8.2
2017-Feb-16 06:33N 48°56' W 123°07'9 8.8
2017-Feb-16 05:31N 48°50' W 122°56'9 9.5
2017-Feb-16 04:33N 48°44' W 122°45'9 9.5
2017-Feb-16 03:33N 48°35' W 122°45'35 8.7
2017-Feb-15 23:31N 48°00' W 122°36'9 9.1
2017-Feb-15 22:33N 47°53' W 122°28'10 9.8
2017-Feb-15 21:33N 47°44' W 122°26'9 8.8
2017-Feb-15 20:33N 47°35' W 122°22'1 1.3
2017-Feb-15 19:33N 47°34' W 122°21'  
2017-Feb-11 23:17N 47°34' W 122°21'3 4.1
2017-Feb-11 22:33N 47°37' W 122°23'6 6.3
2017-Feb-11 21:33N 47°42' W 122°28'7 7.0
2017-Feb-11 20:33N 47°49' W 122°28'7 7.1
2017-Feb-11 19:33N 47°56' W 122°32'12 5.8
2017-Feb-11 17:27N 48°06' W 122°41'4 4.7
2017-Feb-11 16:33N 48°10' W 122°45'5 5.3
2017-Feb-11 15:32N 48°15' W 122°48'7 6.9
2017-Feb-11 14:31N 48°21' W 122°46'6 6.3
2017-Feb-11 13:33N 48°27' W 122°45'4 4.3
2017-Feb-11 12:33N 48°32' W 122°45'3 2.9
2017-Feb-11 11:33N 48°35' W 122°45'3 2.8
2017-Feb-11 10:33N 48°37' W 122°45'4 4.2
2017-Feb-11 09:33N 48°42' W 122°44'8 6.9
2017-Feb-11 08:24N 48°47' W 122°53'7 7.7
2017-Feb-11 07:28N 48°51' W 123°02'9 7.7
2017-Feb-11 06:18N 48°57' W 123°13'6 8.4
2017-Feb-11 05:33N 49°01' W 123°19'7 7.5
2017-Feb-11 04:33N 49°08' W 123°13'7 7.2
2017-Feb-11 03:33N 49°09' W 123°03'0 0.5
2017-Feb-11 02:33N 49°09' W 123°02'0 0.0
2017-Feb-11 01:33N 49°09' W 123°02'  
Track history (hours):
 
Tides and Currents Weather Stations Pressure Air Temp Water Temp Dewpoint Dewpoint Depression Visibility Wind Speed Wind Dir Waves Ship Positions

Triumph

Owner: WESTERN TOWBOAT CO, SEATTLE, WA. More information available from US FCC via Universal Licensing System and Coast Guard Vessel Documentation Center.

Last reported at 2017-Feb-21 01:29 UTC. Time now 2017-Feb-21 21:33 UTC.
Position N 47°34' W 122°21'.

Length 24 m; draft 3 m.

Type: Tow > 200 m length. MMSI: 367103880.

Date/timePositionNaut miles runAvg speedWind from/ knotsBaromVisibWave heightAir tempDewpointWater temp
2017-Feb-21 01:29N 47°34' W 122°21'0 0.5
2017-Feb-21 00:33N 47°34' W 122°21'4 4.3
2017-Feb-20 23:33N 47°37' W 122°25'5 5.5
2017-Feb-20 22:33N 47°42' W 122°28'5 5.1
2017-Feb-20 21:33N 47°47' W 122°27'4 4.5
2017-Feb-20 20:33N 47°52' W 122°29'6 5.2
2017-Feb-20 19:27N 47°57' W 122°33'12 6.3
2017-Feb-20 17:33N 48°07' W 122°42'7 7.3
2017-Feb-20 16:33N 48°13' W 122°48'7 6.7
2017-Feb-20 15:31N 48°20' W 122°47'7 6.8
2017-Feb-20 14:33N 48°26' W 122°45'7 7.1
2017-Feb-20 13:33N 48°33' W 122°45'7 7.1
2017-Feb-20 12:33N 48°40' W 122°44'7 6.6
2017-Feb-20 11:32N 48°46' W 122°50'7 7.0
2017-Feb-20 10:31N 48°50' W 122°58'7 6.9
2017-Feb-20 09:32N 48°54' W 123°07'7 7.1
2017-Feb-20 08:32N 48°59' W 123°15'6 6.0
2017-Feb-20 07:33N 49°04' W 123°19'5 5.1
2017-Feb-20 06:33N 49°08' W 123°14'6 6.1
2017-Feb-20 05:33N 49°07' W 123°05'3 2.7
2017-Feb-20 04:33N 49°09' W 123°02'0 0.0
2017-Feb-20 03:33N 49°09' W 123°02'0 0.0
2017-Feb-20 02:33N 49°09' W 123°02'0 0.0
2017-Feb-20 01:33N 49°09' W 123°02'0 0.0
2017-Feb-20 00:33N 49°09' W 123°02'0 0.0
2017-Feb-19 23:33N 49°09' W 123°02'0 0.0
2017-Feb-19 22:33N 49°09' W 123°02'0 0.0
2017-Feb-19 21:33N 49°09' W 123°02'0 0.0
2017-Feb-19 20:33N 49°09' W 123°02'0 0.0
2017-Feb-19 19:33N 49°09' W 123°02'0 0.0
2017-Feb-19 18:33N 49°09' W 123°02'0 0.0
2017-Feb-19 17:33N 49°09' W 123°02'0 0.0
2017-Feb-19 16:33N 49°09' W 123°02'0 0.0
2017-Feb-19 15:33N 49°09' W 123°02'0 0.0
2017-Feb-19 14:33N 49°09' W 123°02'4 3.9
2017-Feb-19 13:33N 49°07' W 123°07'6 6.2
2017-Feb-19 12:33N 49°07' W 123°16'6 5.6
2017-Feb-19 11:33N 49°01' W 123°15'9 9.2
2017-Feb-19 10:32N 48°55' W 123°05'19 9.4
2017-Feb-19 08:33N 48°43' W 122°44'1010.2
2017-Feb-19 07:33N 48°33' W 122°45'1110.7
2017-Feb-19 06:31N 48°22' W 122°45'9 9.4
2017-Feb-19 05:33N 48°13' W 122°48'8 7.8
2017-Feb-19 04:31N 48°07' W 122°39'10 8.8
2017-Feb-19 03:24N 47°58' W 122°34'8 9.0
2017-Feb-19 02:32N 47°53' W 122°24'2 0.8
2017-Feb-19 00:23N 47°53' W 122°22'910.2
2017-Feb-18 23:33N 47°45' W 122°25'5 5.0
2017-Feb-18 22:33N 47°40' W 122°24'1 0.1
2017-Feb-18 00:12N 47°39' W 122°22'2 2.4
2017-Feb-17 23:33N 47°40' W 122°24'1010.2
2017-Feb-17 22:33N 47°50' W 122°23'1110.7
2017-Feb-17 21:33N 47°59' W 122°13'9 4.5
2017-Feb-17 19:33N 47°53' W 122°24'6 5.6
2017-Feb-17 18:33N 47°55' W 122°31'14 6.6
2017-Feb-17 16:24N 48°08' W 122°42'7 8.0
2017-Feb-17 15:32N 48°13' W 122°48'7 7.4
2017-Feb-17 14:32N 48°20' W 122°46'7 6.7
2017-Feb-17 13:33N 48°27' W 122°45'7 6.8
2017-Feb-17 12:33N 48°34' W 122°45'7 7.2
2017-Feb-17 11:33N 48°41' W 122°44'10 7.2
2017-Feb-17 10:09N 48°48' W 122°55'6 7.8
2017-Feb-17 09:23N 48°52' W 123°02'8 8.5
2017-Feb-17 08:28N 48°56' W 123°11'7 7.7
2017-Feb-17 07:32N 49°02' W 123°19'6 6.0
2017-Feb-17 06:33N 49°07' W 123°15'7 6.7
2017-Feb-17 05:33N 49°07' W 123°05'3 2.8
2017-Feb-17 04:33N 49°09' W 123°02'0 0.0
2017-Feb-17 03:33N 49°09' W 123°02'0 0.0
2017-Feb-17 02:33N 49°09' W 123°02'0 0.0
2017-Feb-17 01:33N 49°09' W 123°02'0 0.0
2017-Feb-17 00:33N 49°09' W 123°02'0 0.0
2017-Feb-16 23:33N 49°09' W 123°02'0 0.0
2017-Feb-16 22:33N 49°09' W 123°02'0 0.0
2017-Feb-16 21:33N 49°09' W 123°02'0 0.0
2017-Feb-16 20:33N 49°09' W 123°02'0 0.0
2017-Feb-16 19:33N 49°09' W 123°02'0 0.0
2017-Feb-16 18:33N 49°09' W 123°02'0 0.0
2017-Feb-16 17:33N 49°09' W 123°02'0 0.0
2017-Feb-16 16:33N 49°09' W 123°02'0 0.0
2017-Feb-16 15:33N 49°09' W 123°02'0 0.0
2017-Feb-16 14:33N 49°09' W 123°02'0 0.0
2017-Feb-16 13:33N 49°09' W 123°02'0 0.0
2017-Feb-16 12:33N 49°09' W 123°02'0 0.0
2017-Feb-16 11:33N 49°09' W 123°02'0 0.0
2017-Feb-16 10:33N 49°09' W 123°02'4 4.1
2017-Feb-16 09:33N 49°07' W 123°07'6 5.6
2017-Feb-16 08:33N 49°07' W 123°16'6 5.6
2017-Feb-16 07:33N 49°02' W 123°16'8 8.2
2017-Feb-16 06:33N 48°56' W 123°07'9 8.8
2017-Feb-16 05:31N 48°50' W 122°56'9 9.5
2017-Feb-16 04:33N 48°44' W 122°45'9 9.5
2017-Feb-16 03:33N 48°35' W 122°45'35 8.7
2017-Feb-15 23:31N 48°00' W 122°36'9 9.1
2017-Feb-15 22:33N 47°53' W 122°28'10 9.8
2017-Feb-15 21:33N 47°44' W 122°26'9 8.8
2017-Feb-15 20:33N 47°35' W 122°22'1 1.3
2017-Feb-15 19:33N 47°34' W 122°21'  
2017-Feb-11 23:17N 47°34' W 122°21'3 4.1
2017-Feb-11 22:33N 47°37' W 122°23'6 6.3
2017-Feb-11 21:33N 47°42' W 122°28'7 7.0
2017-Feb-11 20:33N 47°49' W 122°28'7 7.1
2017-Feb-11 19:33N 47°56' W 122°32'12 5.8
2017-Feb-11 17:27N 48°06' W 122°41'4 4.7
2017-Feb-11 16:33N 48°10' W 122°45'5 5.3
2017-Feb-11 15:32N 48°15' W 122°48'7 6.9
2017-Feb-11 14:31N 48°21' W 122°46'6 6.3
2017-Feb-11 13:33N 48°27' W 122°45'4 4.3
2017-Feb-11 12:33N 48°32' W 122°45'3 2.9
2017-Feb-11 11:33N 48°35' W 122°45'3 2.8
2017-Feb-11 10:33N 48°37' W 122°45'4 4.2
2017-Feb-11 09:33N 48°42' W 122°44'8 6.9
2017-Feb-11 08:24N 48°47' W 122°53'7 7.7
2017-Feb-11 07:28N 48°51' W 123°02'9 7.7
2017-Feb-11 06:18N 48°57' W 123°13'6 8.4
2017-Feb-11 05:33N 49°01' W 123°19'7 7.5
2017-Feb-11 04:33N 49°08' W 123°13'7 7.2
2017-Feb-11 03:33N 49°09' W 123°03'0 0.5
2017-Feb-11 02:33N 49°09' W 123°02'0 0.0
2017-Feb-11 01:33N 49°09' W 123°02'  

Dump ship's entire track history